sensor_id;sensor_type;location;lat;lon;timestamp;P1;durP1;ratioP1;P2;durP2;ratioP2
8312;SDS011;4194;43.408;24.626;2022-10-16T00:01:58;13.90;;;7.93;;
8312;SDS011;4194;43.408;24.626;2022-10-16T00:04:24;10.10;;;7.50;;
8312;SDS011;4194;43.408;24.626;2022-10-16T00:06:50;13.13;;;7.97;;
8312;SDS011;4194;43.408;24.626;2022-10-16T00:09:15;13.17;;;8.07;;
8312;SDS011;4194;43.408;24.626;2022-10-16T00:11:41;10.60;;;8.13;;
8312;SDS011;4194;43.408;24.626;2022-10-16T00:14:09;15.27;;;7.83;;
8312;SDS011;4194;43.408;24.626;2022-10-16T00:16:36;15.37;;;8.47;;
8312;SDS011;4194;43.408;24.626;2022-10-16T00:19:02;12.63;;;7.73;;
8312;SDS011;4194;43.408;24.626;2022-10-16T00:21:29;10.83;;;7.43;;
8312;SDS011;4194;43.408;24.626;2022-10-16T00:23:59;11.20;;;7.67;;
8312;SDS011;4194;43.408;24.626;2022-10-16T00:26:27;9.83;;;6.53;;
8312;SDS011;4194;43.408;24.626;2022-10-16T00:28:54;11.23;;;7.93;;
8312;SDS011;4194;43.408;24.626;2022-10-16T00:31:21;9.80;;;7.17;;
8312;SDS011;4194;43.408;24.626;2022-10-16T00:33:48;11.77;;;7.83;;
8312;SDS011;4194;43.408;24.626;2022-10-16T00:36:15;12.73;;;7.83;;
8312;SDS011;4194;43.408;24.626;2022-10-16T00:38:43;10.60;;;7.30;;
8312;SDS011;4194;43.408;24.626;2022-10-16T00:41:11;11.87;;;7.23;;
8312;SDS011;4194;43.408;24.626;2022-10-16T00:43:49;11.43;;;7.47;;
8312;SDS011;4194;43.408;24.626;2022-10-16T00:46:19;9.33;;;7.57;;
8312;SDS011;4194;43.408;24.626;2022-10-16T00:49:12;10.07;;;7.27;;
8312;SDS011;4194;43.408;24.626;2022-10-16T00:56:50;9.43;;;7.40;;
8312;SDS011;4194;43.408;24.626;2022-10-16T00:59:18;12.70;;;8.40;;
8312;SDS011;4194;43.408;24.626;2022-10-16T01:01:47;14.30;;;8.07;;
8312;SDS011;4194;43.408;24.626;2022-10-16T01:04:13;12.50;;;7.93;;
8312;SDS011;4194;43.408;24.626;2022-10-16T01:06:46;10.00;;;7.50;;
8312;SDS011;4194;43.408;24.626;2022-10-16T01:09:28;10.70;;;7.73;;
8312;SDS011;4194;43.408;24.626;2022-10-16T01:12:26;9.90;;;7.97;;
8312;SDS011;4194;43.408;24.626;2022-10-16T01:15:12;11.23;;;8.55;;
8312;SDS011;4194;43.408;24.626;2022-10-16T01:17:45;11.70;;;7.53;;
8312;SDS011;4194;43.408;24.626;2022-10-16T01:20:37;9.80;;;7.20;;
8312;SDS011;4194;43.408;24.626;2022-10-16T01:29:22;12.63;;;7.70;;
8312;SDS011;4194;43.408;24.626;2022-10-16T01:32:10;9.23;;;7.07;;
8312;SDS011;4194;43.408;24.626;2022-10-16T01:35:09;11.43;;;7.63;;
8312;SDS011;4194;43.408;24.626;2022-10-16T01:40:12;12.33;;;7.57;;
8312;SDS011;4194;43.408;24.626;2022-10-16T01:42:41;12.93;;;8.23;;
8312;SDS011;4194;43.408;24.626;2022-10-16T01:45:12;9.93;;;7.50;;
8312;SDS011;4194;43.408;24.626;2022-10-16T01:47:43;10.90;;;8.13;;
8312;SDS011;4194;43.408;24.626;2022-10-16T01:50:10;10.57;;;7.47;;
8312;SDS011;4194;43.408;24.626;2022-10-16T01:52:39;10.57;;;8.10;;
8312;SDS011;4194;43.408;24.626;2022-10-16T01:55:07;13.47;;;8.40;;
8312;SDS011;4194;43.408;24.626;2022-10-16T01:57:36;12.60;;;8.00;;
8312;SDS011;4194;43.408;24.626;2022-10-16T02:00:07;9.60;;;7.53;;
8312;SDS011;4194;43.408;24.626;2022-10-16T02:02:34;10.43;;;7.77;;
8312;SDS011;4194;43.408;24.626;2022-10-16T02:05:15;9.23;;;7.57;;
8312;SDS011;4194;43.408;24.626;2022-10-16T02:07:47;12.97;;;8.13;;
8312;SDS011;4194;43.408;24.626;2022-10-16T02:10:13;9.67;;;7.20;;
8312;SDS011;4194;43.408;24.626;2022-10-16T02:12:40;11.60;;;7.87;;
8312;SDS011;4194;43.408;24.626;2022-10-16T02:15:09;9.17;;;7.70;;
8312;SDS011;4194;43.408;24.626;2022-10-16T02:17:35;10.60;;;6.97;;
8312;SDS011;4194;43.408;24.626;2022-10-16T02:20:01;14.23;;;8.23;;
8312;SDS011;4194;43.408;24.626;2022-10-16T02:22:28;9.23;;;7.50;;
8312;SDS011;4194;43.408;24.626;2022-10-16T02:24:56;9.70;;;6.83;;
8312;SDS011;4194;43.408;24.626;2022-10-16T02:27:31;9.50;;;7.00;;
8312;SDS011;4194;43.408;24.626;2022-10-16T02:32:58;11.07;;;7.40;;
8312;SDS011;4194;43.408;24.626;2022-10-16T02:35:26;8.80;;;7.37;;
8312;SDS011;4194;43.408;24.626;2022-10-16T02:37:53;11.13;;;7.63;;
8312;SDS011;4194;43.408;24.626;2022-10-16T02:40:20;13.87;;;8.13;;
8312;SDS011;4194;43.408;24.626;2022-10-16T02:42:49;12.00;;;8.60;;
8312;SDS011;4194;43.408;24.626;2022-10-16T02:45:16;9.93;;;7.83;;
8312;SDS011;4194;43.408;24.626;2022-10-16T02:47:43;16.40;;;8.90;;
8312;SDS011;4194;43.408;24.626;2022-10-16T02:50:09;11.23;;;7.30;;
8312;SDS011;4194;43.408;24.626;2022-10-16T02:52:34;10.53;;;8.40;;
8312;SDS011;4194;43.408;24.626;2022-10-16T02:55:00;13.93;;;9.20;;
8312;SDS011;4194;43.408;24.626;2022-10-16T02:57:26;11.20;;;8.30;;
8312;SDS011;4194;43.408;24.626;2022-10-16T02:59:52;9.50;;;8.37;;
8312;SDS011;4194;43.408;24.626;2022-10-16T03:02:17;8.80;;;7.57;;
8312;SDS011;4194;43.408;24.626;2022-10-16T03:04:43;9.33;;;7.63;;
8312;SDS011;4194;43.408;24.626;2022-10-16T03:07:09;17.67;;;9.00;;
8312;SDS011;4194;43.408;24.626;2022-10-16T03:09:35;12.60;;;9.17;;
8312;SDS011;4194;43.408;24.626;2022-10-16T03:12:00;14.27;;;8.80;;
8312;SDS011;4194;43.408;24.626;2022-10-16T03:14:26;12.93;;;8.53;;
8312;SDS011;4194;43.408;24.626;2022-10-16T03:16:52;12.77;;;9.43;;
8312;SDS011;4194;43.408;24.626;2022-10-16T03:19:17;11.27;;;8.60;;
8312;SDS011;4194;43.408;24.626;2022-10-16T03:21:44;12.17;;;8.77;;
8312;SDS011;4194;43.408;24.626;2022-10-16T03:24:10;10.20;;;8.60;;
8312;SDS011;4194;43.408;24.626;2022-10-16T03:26:36;10.03;;;8.37;;
8312;SDS011;4194;43.408;24.626;2022-10-16T03:29:02;12.17;;;8.57;;
8312;SDS011;4194;43.408;24.626;2022-10-16T03:31:29;12.63;;;8.73;;
8312;SDS011;4194;43.408;24.626;2022-10-16T03:33:55;9.60;;;7.87;;
8312;SDS011;4194;43.408;24.626;2022-10-16T03:36:21;11.63;;;8.63;;
8312;SDS011;4194;43.408;24.626;2022-10-16T03:38:47;14.93;;;8.97;;
8312;SDS011;4194;43.408;24.626;2022-10-16T03:41:13;13.83;;;9.00;;
8312;SDS011;4194;43.408;24.626;2022-10-16T03:43:38;11.83;;;8.77;;
8312;SDS011;4194;43.408;24.626;2022-10-16T03:46:04;15.13;;;9.30;;
8312;SDS011;4194;43.408;24.626;2022-10-16T03:48:30;11.53;;;8.00;;
8312;SDS011;4194;43.408;24.626;2022-10-16T03:50:57;12.07;;;9.00;;
8312;SDS011;4194;43.408;24.626;2022-10-16T03:53:22;10.13;;;8.57;;
8312;SDS011;4194;43.408;24.626;2022-10-16T03:55:49;13.07;;;8.83;;
8312;SDS011;4194;43.408;24.626;2022-10-16T03:58:14;11.73;;;9.23;;
8312;SDS011;4194;43.408;24.626;2022-10-16T04:00:41;10.90;;;8.47;;
8312;SDS011;4194;43.408;24.626;2022-10-16T04:03:07;11.17;;;9.17;;
8312;SDS011;4194;43.408;24.626;2022-10-16T04:05:32;14.87;;;9.77;;
8312;SDS011;4194;43.408;24.626;2022-10-16T04:07:58;11.43;;;8.57;;
8312;SDS011;4194;43.408;24.626;2022-10-16T04:10:24;13.27;;;9.23;;
8312;SDS011;4194;43.408;24.626;2022-10-16T04:12:50;13.23;;;9.33;;
8312;SDS011;4194;43.408;24.626;2022-10-16T04:15:15;10.10;;;8.27;;
8312;SDS011;4194;43.408;24.626;2022-10-16T04:17:41;14.67;;;9.23;;
8312;SDS011;4194;43.408;24.626;2022-10-16T04:20:07;10.17;;;8.00;;
8312;SDS011;4194;43.408;24.626;2022-10-16T04:22:33;14.93;;;9.40;;
8312;SDS011;4194;43.408;24.626;2022-10-16T04:24:58;11.47;;;8.57;;
8312;SDS011;4194;43.408;24.626;2022-10-16T04:27:24;10.20;;;8.63;;
8312;SDS011;4194;43.408;24.626;2022-10-16T04:29:50;14.73;;;8.87;;
8312;SDS011;4194;43.408;24.626;2022-10-16T04:32:16;11.73;;;8.23;;
8312;SDS011;4194;43.408;24.626;2022-10-16T04:34:41;14.57;;;9.30;;
8312;SDS011;4194;43.408;24.626;2022-10-16T04:37:07;11.13;;;8.70;;
8312;SDS011;4194;43.408;24.626;2022-10-16T04:39:33;16.60;;;9.53;;
8312;SDS011;4194;43.408;24.626;2022-10-16T04:41:59;14.60;;;9.33;;
8312;SDS011;4194;43.408;24.626;2022-10-16T04:44:25;14.57;;;10.97;;
8312;SDS011;4194;43.408;24.626;2022-10-16T04:46:51;15.43;;;10.83;;
8312;SDS011;4194;43.408;24.626;2022-10-16T04:49:16;18.80;;;12.43;;
8312;SDS011;4194;43.408;24.626;2022-10-16T04:51:42;14.80;;;11.73;;
8312;SDS011;4194;43.408;24.626;2022-10-16T04:54:08;16.43;;;12.07;;
8312;SDS011;4194;43.408;24.626;2022-10-16T04:56:34;16.33;;;11.63;;
8312;SDS011;4194;43.408;24.626;2022-10-16T04:59:07;17.13;;;10.70;;
8312;SDS011;4194;43.408;24.626;2022-10-16T05:01:34;12.83;;;10.47;;
8312;SDS011;4194;43.408;24.626;2022-10-16T05:04:00;16.57;;;11.70;;
8312;SDS011;4194;43.408;24.626;2022-10-16T05:06:26;22.60;;;13.13;;
8312;SDS011;4194;43.408;24.626;2022-10-16T05:08:52;19.23;;;11.70;;
8312;SDS011;4194;43.408;24.626;2022-10-16T05:11:18;17.57;;;11.97;;
8312;SDS011;4194;43.408;24.626;2022-10-16T05:13:43;18.50;;;11.07;;
8312;SDS011;4194;43.408;24.626;2022-10-16T05:16:09;14.00;;;10.30;;
8312;SDS011;4194;43.408;24.626;2022-10-16T05:18:35;16.57;;;10.10;;
8312;SDS011;4194;43.408;24.626;2022-10-16T05:21:00;15.67;;;9.67;;
8312;SDS011;4194;43.408;24.626;2022-10-16T05:23:26;17.23;;;11.27;;
8312;SDS011;4194;43.408;24.626;2022-10-16T05:25:52;16.30;;;10.30;;
8312;SDS011;4194;43.408;24.626;2022-10-16T05:28:19;13.37;;;10.17;;
8312;SDS011;4194;43.408;24.626;2022-10-16T05:30:45;13.27;;;10.70;;
8312;SDS011;4194;43.408;24.626;2022-10-16T05:33:11;13.00;;;9.77;;
8312;SDS011;4194;43.408;24.626;2022-10-16T05:35:36;13.60;;;10.10;;
8312;SDS011;4194;43.408;24.626;2022-10-16T05:38:02;15.17;;;10.17;;
8312;SDS011;4194;43.408;24.626;2022-10-16T05:40:28;16.30;;;10.83;;
8312;SDS011;4194;43.408;24.626;2022-10-16T05:42:54;17.37;;;11.10;;
8312;SDS011;4194;43.408;24.626;2022-10-16T05:45:20;17.57;;;11.43;;
8312;SDS011;4194;43.408;24.626;2022-10-16T05:47:46;15.90;;;11.17;;
8312;SDS011;4194;43.408;24.626;2022-10-16T05:50:11;15.43;;;10.33;;
8312;SDS011;4194;43.408;24.626;2022-10-16T05:52:37;17.57;;;11.40;;
8312;SDS011;4194;43.408;24.626;2022-10-16T05:55:03;13.53;;;10.60;;
8312;SDS011;4194;43.408;24.626;2022-10-16T05:57:29;14.20;;;11.37;;
8312;SDS011;4194;43.408;24.626;2022-10-16T05:59:55;15.77;;;10.90;;
8312;SDS011;4194;43.408;24.626;2022-10-16T06:02:21;13.97;;;10.33;;
8312;SDS011;4194;43.408;24.626;2022-10-16T06:04:47;16.27;;;11.43;;
8312;SDS011;4194;43.408;24.626;2022-10-16T06:07:13;22.03;;;12.50;;
8312;SDS011;4194;43.408;24.626;2022-10-16T06:09:38;20.23;;;14.80;;
8312;SDS011;4194;43.408;24.626;2022-10-16T06:12:04;17.53;;;11.43;;
8312;SDS011;4194;43.408;24.626;2022-10-16T06:14:30;13.63;;;11.00;;
8312;SDS011;4194;43.408;24.626;2022-10-16T06:16:56;13.63;;;9.53;;
8312;SDS011;4194;43.408;24.626;2022-10-16T06:19:22;17.63;;;8.97;;
8312;SDS011;4194;43.408;24.626;2022-10-16T06:21:48;13.50;;;9.20;;
8312;SDS011;4194;43.408;24.626;2022-10-16T06:24:13;16.73;;;10.70;;
8312;SDS011;4194;43.408;24.626;2022-10-16T06:26:39;19.27;;;10.87;;
8312;SDS011;4194;43.408;24.626;2022-10-16T06:29:05;18.20;;;11.00;;
8312;SDS011;4194;43.408;24.626;2022-10-16T06:31:30;15.80;;;10.07;;
8312;SDS011;4194;43.408;24.626;2022-10-16T06:33:58;15.87;;;10.67;;
8312;SDS011;4194;43.408;24.626;2022-10-16T06:36:24;18.67;;;11.70;;
8312;SDS011;4194;43.408;24.626;2022-10-16T06:38:51;18.30;;;11.73;;
8312;SDS011;4194;43.408;24.626;2022-10-16T06:41:18;18.43;;;11.43;;
8312;SDS011;4194;43.408;24.626;2022-10-16T06:43:45;16.03;;;12.13;;
8312;SDS011;4194;43.408;24.626;2022-10-16T06:46:12;15.87;;;11.80;;
8312;SDS011;4194;43.408;24.626;2022-10-16T06:48:40;17.73;;;12.57;;
8312;SDS011;4194;43.408;24.626;2022-10-16T06:53:37;18.17;;;13.87;;
8312;SDS011;4194;43.408;24.626;2022-10-16T06:56:09;20.13;;;13.53;;
8312;SDS011;4194;43.408;24.626;2022-10-16T06:58:39;14.77;;;12.90;;
8312;SDS011;4194;43.408;24.626;2022-10-16T07:01:06;16.70;;;12.70;;
8312;SDS011;4194;43.408;24.626;2022-10-16T07:03:33;19.10;;;13.67;;
8312;SDS011;4194;43.408;24.626;2022-10-16T07:06:01;13.80;;;12.37;;
8312;SDS011;4194;43.408;24.626;2022-10-16T07:08:30;21.17;;;13.00;;
8312;SDS011;4194;43.408;24.626;2022-10-16T07:11:00;16.63;;;12.53;;
8312;SDS011;4194;43.408;24.626;2022-10-16T07:13:28;16.33;;;11.87;;
8312;SDS011;4194;43.408;24.626;2022-10-16T07:15:53;15.87;;;12.03;;
8312;SDS011;4194;43.408;24.626;2022-10-16T07:18:19;18.03;;;11.53;;
8312;SDS011;4194;43.408;24.626;2022-10-16T07:20:45;13.40;;;10.40;;
8312;SDS011;4194;43.408;24.626;2022-10-16T07:23:11;13.73;;;10.90;;
8312;SDS011;4194;43.408;24.626;2022-10-16T07:25:36;19.07;;;11.50;;
8312;SDS011;4194;43.408;24.626;2022-10-16T07:28:02;14.40;;;11.37;;
8312;SDS011;4194;43.408;24.626;2022-10-16T07:30:28;20.13;;;10.50;;
8312;SDS011;4194;43.408;24.626;2022-10-16T07:32:54;12.03;;;10.20;;
8312;SDS011;4194;43.408;24.626;2022-10-16T07:35:20;14.47;;;10.47;;
8312;SDS011;4194;43.408;24.626;2022-10-16T07:37:46;10.67;;;9.20;;
8312;SDS011;4194;43.408;24.626;2022-10-16T07:40:11;13.93;;;10.90;;
8312;SDS011;4194;43.408;24.626;2022-10-16T07:42:37;18.03;;;11.03;;
8312;SDS011;4194;43.408;24.626;2022-10-16T07:45:03;16.53;;;11.27;;
8312;SDS011;4194;43.408;24.626;2022-10-16T07:47:29;14.53;;;11.70;;
8312;SDS011;4194;43.408;24.626;2022-10-16T07:49:55;17.80;;;12.40;;
8312;SDS011;4194;43.408;24.626;2022-10-16T07:52:21;13.50;;;11.47;;
8312;SDS011;4194;43.408;24.626;2022-10-16T07:54:46;15.53;;;12.03;;
8312;SDS011;4194;43.408;24.626;2022-10-16T07:57:12;13.57;;;11.30;;
8312;SDS011;4194;43.408;24.626;2022-10-16T07:59:44;15.90;;;12.07;;
8312;SDS011;4194;43.408;24.626;2022-10-16T08:02:11;15.67;;;11.33;;
8312;SDS011;4194;43.408;24.626;2022-10-16T08:04:37;14.27;;;11.17;;
8312;SDS011;4194;43.408;24.626;2022-10-16T08:07:04;16.47;;;12.13;;
8312;SDS011;4194;43.408;24.626;2022-10-16T08:09:31;23.73;;;13.27;;
8312;SDS011;4194;43.408;24.626;2022-10-16T08:11:57;20.03;;;13.90;;
8312;SDS011;4194;43.408;24.626;2022-10-16T08:14:22;21.53;;;15.20;;
8312;SDS011;4194;43.408;24.626;2022-10-16T08:16:48;23.57;;;13.00;;
8312;SDS011;4194;43.408;24.626;2022-10-16T08:19:13;22.47;;;13.50;;
8312;SDS011;4194;43.408;24.626;2022-10-16T08:21:41;24.50;;;13.13;;
8312;SDS011;4194;43.408;24.626;2022-10-16T08:24:07;20.13;;;11.90;;
8312;SDS011;4194;43.408;24.626;2022-10-16T08:26:33;16.67;;;11.87;;
8312;SDS011;4194;43.408;24.626;2022-10-16T08:28:59;15.40;;;11.57;;
8312;SDS011;4194;43.408;24.626;2022-10-16T08:31:24;14.23;;;9.90;;
8312;SDS011;4194;43.408;24.626;2022-10-16T08:33:52;22.83;;;12.63;;
8312;SDS011;4194;43.408;24.626;2022-10-16T08:36:17;15.43;;;9.83;;
8312;SDS011;4194;43.408;24.626;2022-10-16T08:38:43;11.50;;;7.67;;
8312;SDS011;4194;43.408;24.626;2022-10-16T08:43:42;10.13;;;5.90;;
8312;SDS011;4194;43.408;24.626;2022-10-16T08:48:55;11.20;;;5.70;;
8312;SDS011;4194;43.408;24.626;2022-10-16T08:51:24;11.20;;;6.33;;
8312;SDS011;4194;43.408;24.626;2022-10-16T08:54:01;9.20;;;5.68;;
8312;SDS011;4194;43.408;24.626;2022-10-16T08:56:46;8.53;;;5.47;;
8312;SDS011;4194;43.408;24.626;2022-10-16T08:59:11;7.17;;;5.87;;
8312;SDS011;4194;43.408;24.626;2022-10-16T09:01:49;10.07;;;6.23;;
8312;SDS011;4194;43.408;24.626;2022-10-16T09:21:30;10.07;;;5.20;;
8312;SDS011;4194;43.408;24.626;2022-10-16T09:24:07;11.13;;;5.60;;
8312;SDS011;4194;43.408;24.626;2022-10-16T09:26:38;9.77;;;5.47;;
8312;SDS011;4194;43.408;24.626;2022-10-16T09:29:03;7.97;;;4.87;;
8312;SDS011;4194;43.408;24.626;2022-10-16T09:31:29;7.73;;;5.07;;
8312;SDS011;4194;43.408;24.626;2022-10-16T09:33:57;6.53;;;4.70;;
8312;SDS011;4194;43.408;24.626;2022-10-16T09:36:25;11.73;;;5.27;;
8312;SDS011;4194;43.408;24.626;2022-10-16T09:39:04;8.07;;;5.20;;
8312;SDS011;4194;43.408;24.626;2022-10-16T09:41:30;8.47;;;5.50;;
8312;SDS011;4194;43.408;24.626;2022-10-16T09:44:00;11.80;;;6.13;;
8312;SDS011;4194;43.408;24.626;2022-10-16T09:46:36;9.63;;;6.60;;
8312;SDS011;4194;43.408;24.626;2022-10-16T09:49:04;8.20;;;5.43;;
8312;SDS011;4194;43.408;24.626;2022-10-16T09:51:44;10.50;;;5.17;;
8312;SDS011;4194;43.408;24.626;2022-10-16T09:56:40;8.87;;;6.07;;
8312;SDS011;4194;43.408;24.626;2022-10-16T09:59:16;7.60;;;5.40;;
8312;SDS011;4194;43.408;24.626;2022-10-16T10:01:46;9.17;;;6.20;;
8312;SDS011;4194;43.408;24.626;2022-10-16T10:04:12;7.00;;;5.50;;
8312;SDS011;4194;43.408;24.626;2022-10-16T10:06:43;9.43;;;5.47;;
8312;SDS011;4194;43.408;24.626;2022-10-16T10:09:31;8.40;;;5.13;;
8312;SDS011;4194;43.408;24.626;2022-10-16T10:12:05;6.03;;;5.37;;
8312;SDS011;4194;43.408;24.626;2022-10-16T10:14:46;11.47;;;6.13;;
8312;SDS011;4194;43.408;24.626;2022-10-16T10:17:23;8.63;;;6.00;;
8312;SDS011;4194;43.408;24.626;2022-10-16T10:19:55;9.10;;;6.13;;
8312;SDS011;4194;43.408;24.626;2022-10-16T10:25:16;56.87;;;41.07;;
8312;SDS011;4194;43.408;24.626;2022-10-16T10:30:56;6.17;;;5.00;;
8312;SDS011;4194;43.408;24.626;2022-10-16T10:36:44;7.93;;;5.73;;
8312;SDS011;4194;43.408;24.626;2022-10-16T10:39:44;8.97;;;5.67;;
8312;SDS011;4194;43.408;24.626;2022-10-16T10:42:40;9.17;;;4.70;;
8312;SDS011;4194;43.408;24.626;2022-10-16T10:45:17;6.50;;;4.93;;
8312;SDS011;4194;43.408;24.626;2022-10-16T10:56:00;10.33;;;6.13;;
8312;SDS011;4194;43.408;24.626;2022-10-16T10:58:57;8.47;;;4.87;;
8312;SDS011;4194;43.408;24.626;2022-10-16T11:07:34;8.67;;;5.07;;
8312;SDS011;4194;43.408;24.626;2022-10-16T11:12:49;7.63;;;3.90;;
8312;SDS011;4194;43.408;24.626;2022-10-16T11:15:19;9.30;;;5.80;;
8312;SDS011;4194;43.408;24.626;2022-10-16T11:20:20;6.07;;;4.30;;
8312;SDS011;4194;43.408;24.626;2022-10-16T11:25:33;7.57;;;5.77;;
8312;SDS011;4194;43.408;24.626;2022-10-16T11:30:50;7.37;;;4.03;;
8312;SDS011;4194;43.408;24.626;2022-10-16T11:33:38;6.53;;;4.43;;
8312;SDS011;4194;43.408;24.626;2022-10-16T11:41:28;4.87;;;3.70;;
8312;SDS011;4194;43.408;24.626;2022-10-16T11:44:19;6.30;;;5.10;;
8312;SDS011;4194;43.408;24.626;2022-10-16T11:49:36;4.13;;;3.73;;
8312;SDS011;4194;43.408;24.626;2022-10-16T11:52:20;6.40;;;3.83;;
8312;SDS011;4194;43.408;24.626;2022-10-16T11:57:49;5.60;;;4.00;;
8312;SDS011;4194;43.408;24.626;2022-10-16T12:00:31;6.43;;;3.87;;
8312;SDS011;4194;43.408;24.626;2022-10-16T12:03:14;5.00;;;4.50;;
8312;SDS011;4194;43.408;24.626;2022-10-16T12:08:33;6.57;;;4.30;;
8312;SDS011;4194;43.408;24.626;2022-10-16T12:11:07;7.53;;;4.90;;
8312;SDS011;4194;43.408;24.626;2022-10-16T12:13:39;6.47;;;4.40;;
8312;SDS011;4194;43.408;24.626;2022-10-16T12:18:37;7.25;;;5.80;;
8312;SDS011;4194;43.408;24.626;2022-10-16T12:21:14;6.78;;;5.28;;
8312;SDS011;4194;43.408;24.626;2022-10-16T12:23:51;9.23;;;5.40;;
8312;SDS011;4194;43.408;24.626;2022-10-16T12:28:53;7.82;;;5.47;;
8312;SDS011;4194;43.408;24.626;2022-10-16T12:31:19;10.20;;;5.80;;
8312;SDS011;4194;43.408;24.626;2022-10-16T12:33:57;9.45;;;7.88;;
8312;SDS011;4194;43.408;24.626;2022-10-16T12:36:32;7.03;;;6.18;;
8312;SDS011;4194;43.408;24.626;2022-10-16T12:38:59;6.43;;;5.82;;
8312;SDS011;4194;43.408;24.626;2022-10-16T12:41:30;11.23;;;9.52;;
8312;SDS011;4194;43.408;24.626;2022-10-16T12:43:57;7.28;;;6.57;;
8312;SDS011;4194;43.408;24.626;2022-10-16T12:49:05;6.75;;;6.15;;
8312;SDS011;4194;43.408;24.626;2022-10-16T12:51:41;8.25;;;5.50;;
8312;SDS011;4194;43.408;24.626;2022-10-16T12:54:26;6.90;;;5.50;;
8312;SDS011;4194;43.408;24.626;2022-10-16T13:23:14;6.53;;;5.28;;
8312;SDS011;4194;43.408;24.626;2022-10-16T13:28:19;9.43;;;4.95;;
8312;SDS011;4194;43.408;24.626;2022-10-16T13:30:52;5.13;;;4.68;;
8312;SDS011;4194;43.408;24.626;2022-10-16T13:35:54;5.25;;;4.32;;
8312;SDS011;4194;43.408;24.626;2022-10-16T13:38:25;8.57;;;4.60;;
8312;SDS011;4194;43.408;24.626;2022-10-16T13:41:00;6.18;;;4.50;;
8312;SDS011;4194;43.408;24.626;2022-10-16T13:43:29;6.53;;;4.70;;
8312;SDS011;4194;43.408;24.626;2022-10-16T13:48:55;7.85;;;5.32;;
8312;SDS011;4194;43.408;24.626;2022-10-16T13:51:25;7.88;;;4.97;;
8312;SDS011;4194;43.408;24.626;2022-10-16T13:53:51;5.57;;;4.63;;
8312;SDS011;4194;43.408;24.626;2022-10-16T13:56:20;6.33;;;4.70;;
8312;SDS011;4194;43.408;24.626;2022-10-16T13:59:00;5.33;;;4.77;;
8312;SDS011;4194;43.408;24.626;2022-10-16T14:01:34;7.00;;;5.03;;
8312;SDS011;4194;43.408;24.626;2022-10-16T14:04:10;8.43;;;4.90;;
8312;SDS011;4194;43.408;24.626;2022-10-16T14:06:42;8.00;;;4.50;;
8312;SDS011;4194;43.408;24.626;2022-10-16T14:12:10;6.27;;;4.70;;
8312;SDS011;4194;43.408;24.626;2022-10-16T14:14:41;5.63;;;4.87;;
8312;SDS011;4194;43.408;24.626;2022-10-16T14:19:53;7.97;;;4.93;;
8312;SDS011;4194;43.408;24.626;2022-10-16T14:24:53;9.80;;;5.13;;
8312;SDS011;4194;43.408;24.626;2022-10-16T14:27:28;9.80;;;5.00;;
8312;SDS011;4194;43.408;24.626;2022-10-16T14:30:17;6.93;;;4.53;;
8312;SDS011;4194;43.408;24.626;2022-10-16T14:32:58;12.90;;;4.90;;
8312;SDS011;4194;43.408;24.626;2022-10-16T14:35:25;9.57;;;4.60;;
8312;SDS011;4194;43.408;24.626;2022-10-16T14:37:58;13.23;;;4.50;;
8312;SDS011;4194;43.408;24.626;2022-10-16T14:40:26;10.03;;;4.73;;
8312;SDS011;4194;43.408;24.626;2022-10-16T14:42:54;8.87;;;5.00;;
8312;SDS011;4194;43.408;24.626;2022-10-16T14:45:21;5.60;;;4.90;;
8312;SDS011;4194;43.408;24.626;2022-10-16T14:47:50;9.80;;;5.37;;
8312;SDS011;4194;43.408;24.626;2022-10-16T14:50:18;12.17;;;4.93;;
8312;SDS011;4194;43.408;24.626;2022-10-16T14:52:44;9.17;;;5.00;;
8312;SDS011;4194;43.408;24.626;2022-10-16T14:55:10;11.23;;;4.60;;
8312;SDS011;4194;43.408;24.626;2022-10-16T14:57:37;4.70;;;4.13;;
8312;SDS011;4194;43.408;24.626;2022-10-16T15:00:25;7.50;;;5.22;;
8312;SDS011;4194;43.408;24.626;2022-10-16T15:02:50;8.00;;;5.40;;
8312;SDS011;4194;43.408;24.626;2022-10-16T15:05:17;6.03;;;5.03;;
8312;SDS011;4194;43.408;24.626;2022-10-16T15:07:43;9.50;;;5.57;;
8312;SDS011;4194;43.408;24.626;2022-10-16T15:10:10;7.43;;;5.13;;
8312;SDS011;4194;43.408;24.626;2022-10-16T15:12:36;9.67;;;4.63;;
8312;SDS011;4194;43.408;24.626;2022-10-16T15:15:10;7.93;;;4.80;;
8312;SDS011;4194;43.408;24.626;2022-10-16T15:20:21;9.77;;;5.40;;
8312;SDS011;4194;43.408;24.626;2022-10-16T15:22:48;9.67;;;5.17;;
8312;SDS011;4194;43.408;24.626;2022-10-16T15:25:30;7.83;;;5.60;;
8312;SDS011;4194;43.408;24.626;2022-10-16T15:28:14;11.73;;;5.27;;
8312;SDS011;4194;43.408;24.626;2022-10-16T15:30:41;8.67;;;5.07;;
8312;SDS011;4194;43.408;24.626;2022-10-16T15:33:14;10.47;;;5.40;;
8312;SDS011;4194;43.408;24.626;2022-10-16T15:35:41;6.10;;;4.77;;
8312;SDS011;4194;43.408;24.626;2022-10-16T15:38:11;10.47;;;5.23;;
8312;SDS011;4194;43.408;24.626;2022-10-16T15:40:38;8.67;;;5.03;;
8312;SDS011;4194;43.408;24.626;2022-10-16T15:43:04;6.13;;;4.73;;
8312;SDS011;4194;43.408;24.626;2022-10-16T15:45:30;10.20;;;4.50;;
8312;SDS011;4194;43.408;24.626;2022-10-16T15:47:57;7.60;;;5.30;;
8312;SDS011;4194;43.408;24.626;2022-10-16T15:50:23;9.23;;;5.47;;
8312;SDS011;4194;43.408;24.626;2022-10-16T15:52:49;10.50;;;5.67;;
8312;SDS011;4194;43.408;24.626;2022-10-16T15:55:17;12.63;;;6.17;;
8312;SDS011;4194;43.408;24.626;2022-10-16T15:57:44;11.17;;;5.80;;
8312;SDS011;4194;43.408;24.626;2022-10-16T16:00:12;11.17;;;5.50;;
8312;SDS011;4194;43.408;24.626;2022-10-16T16:02:41;13.50;;;5.67;;
8312;SDS011;4194;43.408;24.626;2022-10-16T16:05:08;17.17;;;6.20;;
8312;SDS011;4194;43.408;24.626;2022-10-16T16:07:35;9.93;;;7.03;;
8312;SDS011;4194;43.408;24.626;2022-10-16T16:10:01;13.17;;;6.27;;
8312;SDS011;4194;43.408;24.626;2022-10-16T16:12:28;10.30;;;6.37;;
8312;SDS011;4194;43.408;24.626;2022-10-16T16:14:54;13.43;;;7.00;;
8312;SDS011;4194;43.408;24.626;2022-10-16T16:17:20;11.07;;;6.53;;
8312;SDS011;4194;43.408;24.626;2022-10-16T16:19:46;18.27;;;7.10;;
8312;SDS011;4194;43.408;24.626;2022-10-16T16:22:12;11.77;;;6.57;;
8312;SDS011;4194;43.408;24.626;2022-10-16T16:24:38;8.80;;;5.93;;
8312;SDS011;4194;43.408;24.626;2022-10-16T16:27:03;11.97;;;6.03;;
8312;SDS011;4194;43.408;24.626;2022-10-16T16:29:29;9.07;;;6.35;;
8312;SDS011;4194;43.408;24.626;2022-10-16T16:31:55;12.53;;;5.80;;
8312;SDS011;4194;43.408;24.626;2022-10-16T16:34:26;12.03;;;6.17;;
8312;SDS011;4194;43.408;24.626;2022-10-16T16:36:53;15.53;;;6.30;;
8312;SDS011;4194;43.408;24.626;2022-10-16T16:39:20;12.43;;;5.97;;
8312;SDS011;4194;43.408;24.626;2022-10-16T16:41:46;12.57;;;5.70;;
8312;SDS011;4194;43.408;24.626;2022-10-16T16:44:12;10.10;;;5.50;;
8312;SDS011;4194;43.408;24.626;2022-10-16T16:46:40;8.93;;;5.27;;
8312;SDS011;4194;43.408;24.626;2022-10-16T16:49:08;9.43;;;6.60;;
8312;SDS011;4194;43.408;24.626;2022-10-16T16:51:37;14.57;;;6.67;;
8312;SDS011;4194;43.408;24.626;2022-10-16T16:54:03;10.43;;;6.00;;
8312;SDS011;4194;43.408;24.626;2022-10-16T16:56:29;9.77;;;6.93;;
8312;SDS011;4194;43.408;24.626;2022-10-16T16:58:56;11.10;;;6.40;;
8312;SDS011;4194;43.408;24.626;2022-10-16T17:01:23;9.67;;;6.10;;
8312;SDS011;4194;43.408;24.626;2022-10-16T17:03:51;12.60;;;6.30;;
8312;SDS011;4194;43.408;24.626;2022-10-16T17:06:23;12.80;;;5.90;;
8312;SDS011;4194;43.408;24.626;2022-10-16T17:08:51;13.33;;;6.20;;
8312;SDS011;4194;43.408;24.626;2022-10-16T17:11:20;12.67;;;6.33;;
8312;SDS011;4194;43.408;24.626;2022-10-16T17:13:48;9.50;;;6.07;;
8312;SDS011;4194;43.408;24.626;2022-10-16T17:16:15;9.93;;;5.83;;
8312;SDS011;4194;43.408;24.626;2022-10-16T17:18:41;11.67;;;6.27;;
8312;SDS011;4194;43.408;24.626;2022-10-16T17:21:08;13.20;;;6.73;;
8312;SDS011;4194;43.408;24.626;2022-10-16T17:23:35;10.90;;;6.17;;
8312;SDS011;4194;43.408;24.626;2022-10-16T17:26:09;11.50;;;6.63;;